createdAt,value
2019-05-25T00:01:42.824Z,5.45
2019-05-25T00:04:11.434Z,5.92
2019-05-25T00:06:40.125Z,5.45
2019-05-25T00:09:08.903Z,5.80
2019-05-25T00:11:37.570Z,6.08
2019-05-25T00:14:06.185Z,6.00
2019-05-25T00:16:35.008Z,5.47
2019-05-25T00:19:03.774Z,5.60
2019-05-25T00:21:32.490Z,5.65
2019-05-25T00:24:11.813Z,5.90
2019-05-25T00:26:31.498Z,6.03
2019-05-25T00:29:00.166Z,6.12
2019-05-25T00:31:28.799Z,6.22
2019-05-25T00:33:57.504Z,6.08
2019-05-25T00:36:26.121Z,6.42
2019-05-25T00:38:54.775Z,6.03
2019-05-25T00:41:23.390Z,5.78
2019-05-25T00:43:52.054Z,5.97
2019-05-25T00:46:20.735Z,7.00
2019-05-25T00:48:49.421Z,5.33
2019-05-25T00:51:18.032Z,5.85
2019-05-25T00:53:46.752Z,6.15
2019-05-25T00:56:15.413Z,5.65
2019-05-25T00:58:44.077Z,5.92
2019-05-25T01:01:12.750Z,5.70
2019-05-25T01:03:41.415Z,5.55
2019-05-25T01:06:10.023Z,5.78
2019-05-25T01:08:38.680Z,5.60
2019-05-25T01:11:07.387Z,5.53
2019-05-25T01:13:36.006Z,5.83
2019-05-25T01:16:04.978Z,4.72
2019-05-25T01:18:33.638Z,5.35
2019-05-25T01:21:02.339Z,5.40
2019-05-25T01:23:31.021Z,4.97
2019-05-25T01:25:59.680Z,4.65
2019-05-25T01:28:28.411Z,5.00
2019-05-25T01:30:57.028Z,4.55
2019-05-25T01:33:25.703Z,4.35
2019-05-25T01:35:54.376Z,4.85
2019-05-25T01:38:23.035Z,3.90
2019-05-25T01:40:51.663Z,5.50
2019-05-25T01:43:20.308Z,4.33
2019-05-25T01:45:48.921Z,4.42
2019-05-25T01:48:17.584Z,4.47
2019-05-25T01:50:46.197Z,4.37
2019-05-25T01:53:14.817Z,4.28
2019-05-25T01:55:43.472Z,4.40
2019-05-25T01:58:12.087Z,4.35
2019-05-25T02:00:40.817Z,4.42
2019-05-25T02:03:09.430Z,4.22
2019-05-25T02:05:38.088Z,3.98
2019-05-25T02:08:06.704Z,4.47
2019-05-25T02:10:35.372Z,3.92
2019-05-25T02:13:03.982Z,3.72
2019-05-25T02:15:32.641Z,3.70
2019-05-25T02:18:01.403Z,4.08
2019-05-25T02:20:30.064Z,3.58
2019-05-25T02:22:58.725Z,3.22
2019-05-25T02:25:27.459Z,3.37
2019-05-25T02:27:56.067Z,3.50
2019-05-25T02:30:26.539Z,3.67
2019-05-25T02:32:55.395Z,3.37
2019-05-25T02:35:27.060Z,3.75
2019-05-25T02:37:56.977Z,3.37
2019-05-25T02:40:26.141Z,3.10
2019-05-25T02:42:54.837Z,4.25
2019-05-25T02:45:23.610Z,3.33
2019-05-25T02:47:52.227Z,2.83
2019-05-25T02:50:21.400Z,3.80
2019-05-25T02:52:50.015Z,3.05
2019-05-25T02:55:32.946Z,3.33
2019-05-25T02:57:49.299Z,3.52
2019-05-25T03:00:21.460Z,3.33
2019-05-25T03:02:50.654Z,3.45
2019-05-25T03:05:20.207Z,3.42
2019-05-25T03:07:49.043Z,3.00
2019-05-25T03:10:18.040Z,3.27
2019-05-25T03:12:46.935Z,3.00
2019-05-25T03:15:16.135Z,3.22
2019-05-25T03:17:44.798Z,3.33
2019-05-25T03:20:14.221Z,3.17
2019-05-25T03:22:42.879Z,3.33
2019-05-25T03:25:12.035Z,2.75
2019-05-25T03:27:40.700Z,2.95
2019-05-25T03:30:10.387Z,3.70
2019-05-25T03:32:39.069Z,3.15
2019-05-25T03:35:08.285Z,3.77
2019-05-25T03:37:36.979Z,3.25
2019-05-25T03:40:07.900Z,3.50
2019-05-25T03:42:36.528Z,3.70
2019-05-25T03:45:06.761Z,3.85
2019-05-25T03:47:35.369Z,3.60
2019-05-25T03:50:04.847Z,3.47
2019-05-25T03:52:33.450Z,4.00
2019-05-25T03:55:02.118Z,3.42
2019-05-25T03:57:30.727Z,3.67
2019-05-25T03:59:59.385Z,4.25
2019-05-25T04:02:28.034Z,3.47
2019-05-25T04:04:56.741Z,3.55
2019-05-25T04:07:25.410Z,4.37
2019-05-25T04:09:54.073Z,3.45
2019-05-25T04:12:22.740Z,4.35
2019-05-25T04:14:51.403Z,3.58
2019-05-25T04:17:20.063Z,3.40
2019-05-25T04:19:48.745Z,2.92
2019-05-25T04:22:17.410Z,3.10
2019-05-25T04:24:46.020Z,3.30
2019-05-25T04:27:14.682Z,2.70
2019-05-25T04:29:43.344Z,3.30
2019-05-25T04:32:11.955Z,3.65
2019-05-25T04:34:40.651Z,3.27
2019-05-25T04:37:09.314Z,3.25
2019-05-25T04:39:37.924Z,3.08
2019-05-25T04:42:06.584Z,2.80
2019-05-25T04:44:35.201Z,2.72
2019-05-25T04:47:03.865Z,3.55
2019-05-25T04:49:32.522Z,3.10
2019-05-25T04:52:01.207Z,2.75
2019-05-25T04:54:29.933Z,2.00
2019-05-25T04:56:58.599Z,3.47
2019-05-25T04:59:27.304Z,2.10
2019-05-25T05:01:55.976Z,2.33
2019-05-25T05:04:24.677Z,2.55
2019-05-25T05:06:53.375Z,2.40
2019-05-25T05:09:22.051Z,1.90
2019-05-25T05:11:50.718Z,2.30
2019-05-25T05:14:19.332Z,1.45
2019-05-25T05:16:48.009Z,2.22
2019-05-25T05:19:16.796Z,1.75
2019-05-25T05:21:45.473Z,2.40
2019-05-25T05:24:14.081Z,2.40
2019-05-25T05:26:55.253Z,2.62
2019-05-25T05:29:13.078Z,3.33
2019-05-25T05:31:41.689Z,1.67
2019-05-25T05:34:10.364Z,3.55
2019-05-25T05:36:39.039Z,2.17
2019-05-25T05:39:08.671Z,4.62
2019-05-25T05:41:40.313Z,3.70
2019-05-25T05:44:08.974Z,2.00
2019-05-25T05:46:37.724Z,2.15
2019-05-25T05:49:08.999Z,2.65
2019-05-25T05:51:38.550Z,3.20
2019-05-25T05:54:07.313Z,2.22
2019-05-25T05:56:35.930Z,1.98
2019-05-25T05:59:04.595Z,3.55
2019-05-25T06:01:33.252Z,2.25
2019-05-25T06:04:02.176Z,3.05
2019-05-25T06:06:31.012Z,2.05
2019-05-25T06:08:59.627Z,3.15
2019-05-25T06:11:28.286Z,3.27
2019-05-25T06:13:56.089Z,2.00
2019-05-25T06:16:24.742Z,3.17
2019-05-25T06:18:53.349Z,2.60
2019-05-25T06:21:22.011Z,1.57
2019-05-25T06:23:50.626Z,1.60
2019-05-25T06:26:19.296Z,2.75
2019-05-25T06:28:48.100Z,2.30
2019-05-25T06:31:16.763Z,2.47
2019-05-25T06:33:45.378Z,2.33
2019-05-25T06:36:14.158Z,2.55
2019-05-25T06:38:42.772Z,1.80
2019-05-25T06:41:11.433Z,2.33
2019-05-25T06:43:40.085Z,1.92
2019-05-25T06:46:08.744Z,2.40
2019-05-25T06:48:37.357Z,2.65
2019-05-25T06:51:06.086Z,2.20
2019-05-25T06:53:34.770Z,2.40
2019-05-25T06:56:03.600Z,2.12
2019-05-25T06:58:32.212Z,2.25
2019-05-25T07:01:00.877Z,2.83
2019-05-25T07:03:29.494Z,2.12
2019-05-25T07:05:58.187Z,2.45
2019-05-25T07:08:26.872Z,1.65
2019-05-25T07:10:55.533Z,3.10
2019-05-25T07:13:24.213Z,1.72
2019-05-25T07:15:52.935Z,2.02
2019-05-25T07:18:21.559Z,1.55
2019-05-25T07:20:50.209Z,2.25
2019-05-25T07:23:18.825Z,1.50
2019-05-25T07:25:47.491Z,1.17
2019-05-25T07:28:16.106Z,2.05
2019-05-25T07:30:46.713Z,1.65
2019-05-25T07:33:15.102Z,1.77
2019-05-25T07:35:43.763Z,1.95
2019-05-25T07:38:12.650Z,2.12
2019-05-25T07:40:41.304Z,2.00
2019-05-25T07:43:09.960Z,1.75
2019-05-25T07:45:42.904Z,2.47
2019-05-25T07:48:11.693Z,1.72
2019-05-25T07:50:40.376Z,1.27
2019-05-25T07:53:09.034Z,2.25
2019-05-25T07:55:37.694Z,1.57
2019-05-25T07:58:16.445Z,2.50
2019-05-25T08:00:36.726Z,1.87
2019-05-25T08:05:57.759Z,2.75
2019-05-25T08:08:26.417Z,2.67
2019-05-25T08:10:55.054Z,2.00
2019-05-25T08:13:23.740Z,2.05
2019-05-25T08:15:52.400Z,2.40
2019-05-25T08:18:21.082Z,2.47
2019-05-25T08:20:49.800Z,2.10
2019-05-25T08:23:18.458Z,2.72
2019-05-25T08:25:47.242Z,2.05
2019-05-25T08:28:29.861Z,2.12
2019-05-25T08:30:46.423Z,3.10
2019-05-25T08:33:15.281Z,2.08
2019-05-25T08:35:46.454Z,2.25
2019-05-25T08:38:14.543Z,1.67
2019-05-25T08:40:43.475Z,2.77
2019-05-25T08:43:12.088Z,3.20
2019-05-25T08:45:40.916Z,2.10
2019-05-25T08:48:09.528Z,2.35
2019-05-25T08:50:38.931Z,3.40
2019-05-25T08:53:07.893Z,3.10
2019-05-25T08:55:37.291Z,2.72
2019-05-25T08:58:05.900Z,1.45
2019-05-25T09:00:34.632Z,2.35
2019-05-25T09:03:03.312Z,3.42
2019-05-25T09:05:31.973Z,2.55
2019-05-25T09:08:00.632Z,3.02
2019-05-25T09:10:29.308Z,2.00
2019-05-25T09:12:57.919Z,2.05
2019-05-25T09:15:26.631Z,2.15
2019-05-25T09:17:55.568Z,1.45
2019-05-25T09:20:24.225Z,2.12
2019-05-25T09:22:52.890Z,2.08
2019-05-25T09:25:21.580Z,1.92
2019-05-25T09:27:50.242Z,1.42
2019-05-25T09:30:19.093Z,2.98
2019-05-25T09:32:47.844Z,2.22
2019-05-25T09:35:16.695Z,2.62
2019-05-25T09:37:45.538Z,3.30
2019-05-25T09:40:14.838Z,3.58
2019-05-25T09:42:43.696Z,1.92
2019-05-25T09:45:14.363Z,2.12
2019-05-25T09:47:43.162Z,1.90
2019-05-25T09:50:12.584Z,2.55
2019-05-25T09:52:41.240Z,2.40
2019-05-25T09:55:10.636Z,3.80
2019-05-25T09:57:41.730Z,2.08
2019-05-25T10:00:13.071Z,2.60
2019-05-25T10:02:42.586Z,2.65
2019-05-25T10:05:12.496Z,2.50
2019-05-25T10:07:41.110Z,2.47
2019-05-25T10:10:11.786Z,2.40
2019-05-25T10:12:40.398Z,2.12
2019-05-25T10:15:09.404Z,1.80
2019-05-25T10:17:38.187Z,1.70
2019-05-25T10:20:08.092Z,2.47
2019-05-25T10:22:36.707Z,2.12
2019-05-25T10:25:09.923Z,2.22
2019-05-25T10:27:38.537Z,2.72
2019-05-25T10:30:09.202Z,3.50
2019-05-25T10:32:37.813Z,2.52
2019-05-25T10:35:08.407Z,3.27
2019-05-25T10:37:37.166Z,1.37
2019-05-25T10:40:09.402Z,2.87
2019-05-25T10:42:38.225Z,2.05
2019-05-25T10:45:09.068Z,2.40
2019-05-25T10:47:37.968Z,2.33
2019-05-25T10:50:12.884Z,1.70
2019-05-25T10:52:41.645Z,2.47
2019-05-25T10:55:12.307Z,3.35
2019-05-25T10:57:40.971Z,2.15
2019-05-25T11:00:11.692Z,2.17
2019-05-25T11:02:40.360Z,2.80
2019-05-25T11:05:10.010Z,2.30
2019-05-25T11:07:38.782Z,2.85
2019-05-25T11:10:09.008Z,2.62
2019-05-25T11:12:38.346Z,3.10
2019-05-25T11:15:09.560Z,3.72
2019-05-25T11:17:38.387Z,2.83
2019-05-25T11:20:09.262Z,1.98
2019-05-25T11:22:38.058Z,3.47
2019-05-25T11:25:08.252Z,3.08
2019-05-25T11:27:36.971Z,2.22
2019-05-25T11:30:10.305Z,2.33
2019-05-25T11:32:39.311Z,3.17
2019-05-25T11:35:08.702Z,2.40
2019-05-25T11:37:37.450Z,3.08
2019-05-25T11:40:08.524Z,1.80
2019-05-25T11:42:37.200Z,3.47
2019-05-25T11:45:06.923Z,2.33
2019-05-25T11:47:35.577Z,2.25
2019-05-25T11:50:07.536Z,3.72
2019-05-25T11:52:36.268Z,2.12
2019-05-25T11:55:10.370Z,3.00
2019-05-25T11:57:39.047Z,2.67
2019-05-25T12:00:23.597Z,2.25
2019-05-25T12:02:41.676Z,2.37
2019-05-25T12:05:12.152Z,2.33
2019-05-25T12:07:44.440Z,2.27
2019-05-25T12:10:12.067Z,2.15
2019-05-25T12:12:40.661Z,3.27
2019-05-25T12:15:10.133Z,1.67
2019-05-25T12:17:38.817Z,2.87
2019-05-25T12:20:08.686Z,2.00
2019-05-25T12:22:37.325Z,2.40
2019-05-25T12:25:07.913Z,1.75
2019-05-25T12:27:36.529Z,2.37
2019-05-25T12:30:07.469Z,3.08
2019-05-25T12:32:36.651Z,1.92
2019-05-25T12:35:08.884Z,3.08
2019-05-25T12:37:37.516Z,2.85
2019-05-25T12:40:06.862Z,3.10
2019-05-25T12:42:35.477Z,2.00
2019-05-25T12:45:06.348Z,4.12
2019-05-25T12:47:35.397Z,3.40
2019-05-25T12:50:06.216Z,3.30
2019-05-25T12:52:35.006Z,2.17
2019-05-25T12:55:04.929Z,3.77
2019-05-25T12:57:33.662Z,2.37
2019-05-25T13:00:14.833Z,2.62
2019-05-25T13:02:33.893Z,2.65
2019-05-25T13:05:02.634Z,2.47
2019-05-25T13:07:31.254Z,3.33
2019-05-25T13:09:59.917Z,2.37
2019-05-25T13:12:28.531Z,3.15
2019-05-25T13:14:57.276Z,2.45
2019-05-25T13:17:25.894Z,2.75
2019-05-25T13:19:54.559Z,3.00
2019-05-25T13:22:23.174Z,2.12
2019-05-25T13:24:51.952Z,2.98
2019-05-25T13:27:20.614Z,3.45
2019-05-25T13:29:49.279Z,3.75
2019-05-25T13:32:17.972Z,2.42
2019-05-25T13:34:46.715Z,2.87
2019-05-25T13:37:17.762Z,3.00
2019-05-25T13:39:45.779Z,3.65
2019-05-25T13:42:14.389Z,2.37
2019-05-25T13:44:43.050Z,1.87
2019-05-25T13:47:11.661Z,2.47
2019-05-25T13:49:40.420Z,2.33
2019-05-25T13:52:09.030Z,1.67
2019-05-25T13:54:37.701Z,2.22
2019-05-25T13:57:06.440Z,2.40
2019-05-25T13:59:35.166Z,2.15
2019-05-25T14:02:03.850Z,2.25
2019-05-25T14:04:32.510Z,2.02
2019-05-25T14:07:01.122Z,2.10
2019-05-25T14:09:29.796Z,2.83
2019-05-25T14:11:58.406Z,2.15
2019-05-25T14:14:27.016Z,2.58
2019-05-25T14:16:55.681Z,2.08
2019-05-25T14:19:24.294Z,2.35
2019-05-25T14:21:52.968Z,2.08
2019-05-25T14:24:21.718Z,1.27
2019-05-25T14:26:50.405Z,2.12
2019-05-25T14:29:19.039Z,3.90
2019-05-25T14:31:47.880Z,2.30
2019-05-25T14:34:16.491Z,2.55
2019-05-25T14:36:45.154Z,2.40
2019-05-25T14:39:13.772Z,2.12
2019-05-25T14:41:42.437Z,2.20
2019-05-25T14:44:11.051Z,1.95
2019-05-25T14:46:39.705Z,1.75
2019-05-25T14:49:08.321Z,2.60
2019-05-25T14:51:36.989Z,2.12
2019-05-25T14:54:05.755Z,2.35
2019-05-25T14:56:34.408Z,2.00
2019-05-25T14:59:03.026Z,1.87
2019-05-25T15:01:31.805Z,2.65
2019-05-25T15:04:00.422Z,2.00
2019-05-25T15:06:29.080Z,2.90
2019-05-25T15:08:57.794Z,1.60
2019-05-25T15:11:26.430Z,1.82
2019-05-25T15:13:55.089Z,1.77
2019-05-25T15:16:23.821Z,1.42
2019-05-25T15:18:52.518Z,1.45
2019-05-25T15:21:21.350Z,2.08
2019-05-25T15:23:50.141Z,2.05
2019-05-25T15:26:18.775Z,2.08
2019-05-25T15:28:47.435Z,2.35
2019-05-25T15:31:16.142Z,1.70
2019-05-25T15:33:44.804Z,3.02
2019-05-25T15:36:13.465Z,1.57
2019-05-25T15:38:42.202Z,2.40
2019-05-25T15:41:10.819Z,1.75
2019-05-25T15:43:39.572Z,2.83
2019-05-25T15:46:08.264Z,2.77
2019-05-25T15:48:36.949Z,2.87
2019-05-25T15:51:05.819Z,3.80
2019-05-25T15:53:34.435Z,2.33
2019-05-25T15:56:03.164Z,3.25
2019-05-25T15:58:31.784Z,2.40
2019-05-25T16:01:00.442Z,1.98
2019-05-25T16:03:29.221Z,2.45
2019-05-25T16:05:57.881Z,2.87
2019-05-25T16:08:26.501Z,4.67
2019-05-25T16:10:55.162Z,3.30
2019-05-25T16:13:23.781Z,4.67
2019-05-25T16:15:52.438Z,3.00
2019-05-25T16:18:21.049Z,2.08
2019-05-25T16:20:49.714Z,2.22
2019-05-25T16:23:18.335Z,3.72
2019-05-25T16:25:46.995Z,1.90
2019-05-25T16:28:15.721Z,3.10
2019-05-25T16:30:44.389Z,2.10
2019-05-25T16:35:43.397Z,2.65
2019-05-25T16:38:12.133Z,2.42
2019-05-25T16:40:07.806Z,4.05
2019-05-25T16:40:41.390Z,2.65
2019-05-25T16:43:10.174Z,4.08
2019-05-25T16:45:38.984Z,2.40
2019-05-25T16:48:07.597Z,2.90
2019-05-25T16:50:36.276Z,3.55
2019-05-25T16:53:05.099Z,2.35
2019-05-25T16:55:33.763Z,3.45
2019-05-25T16:58:02.374Z,3.60
2019-05-25T17:00:31.926Z,2.62
2019-05-25T17:03:00.603Z,3.80
2019-05-25T17:05:29.268Z,3.55
2019-05-25T17:07:58.157Z,3.37
2019-05-25T17:10:26.883Z,3.37
2019-05-25T17:12:55.493Z,2.83
2019-05-25T17:15:24.331Z,2.45
2019-05-25T17:17:53.022Z,2.58
2019-05-25T17:20:22.068Z,2.20
2019-05-25T17:22:50.825Z,4.12
2019-05-25T17:25:19.640Z,2.72
2019-05-25T17:27:48.339Z,3.17
2019-05-25T17:30:18.800Z,2.77
2019-05-25T17:32:47.467Z,2.60
2019-05-25T17:35:16.316Z,4.60
2019-05-25T17:37:44.982Z,7.20
2019-05-25T17:40:13.837Z,3.45
2019-05-25T17:42:42.560Z,2.98
2019-05-25T17:45:11.409Z,3.60
2019-05-25T17:47:40.128Z,3.33
2019-05-25T17:50:09.082Z,2.10
2019-05-25T17:52:37.747Z,2.30
2019-05-25T17:55:07.728Z,3.85
2019-05-25T17:57:36.391Z,2.45
2019-05-25T18:00:07.803Z,3.37
2019-05-25T18:02:36.502Z,1.82
2019-05-25T18:05:07.557Z,2.72
2019-05-25T18:07:36.243Z,3.80
2019-05-25T18:10:09.398Z,3.80
2019-05-25T18:12:38.107Z,12.82
2019-05-25T18:15:09.903Z,9.58
2019-05-25T18:17:38.614Z,4.72
2019-05-25T18:20:11.391Z,16.57
2019-05-25T18:22:40.005Z,5.45
2019-05-25T18:25:08.909Z,10.95
2019-05-25T18:27:37.565Z,11.53
2019-05-25T18:30:09.815Z,10.95
2019-05-25T18:32:38.604Z,5.72
2019-05-25T18:35:07.799Z,6.83
2019-05-25T18:37:36.415Z,24.15
2019-05-25T18:40:07.155Z,24.07
2019-05-25T18:42:35.945Z,19.37
2019-05-25T18:45:07.609Z,21.48
2019-05-25T18:47:36.297Z,19.50
2019-05-25T18:50:08.322Z,11.38
2019-05-25T18:52:36.934Z,6.47
2019-05-25T18:55:08.389Z,12.23
2019-05-25T18:57:37.290Z,10.43
2019-05-25T19:00:07.571Z,7.35
2019-05-25T19:02:36.250Z,6.40
2019-05-25T19:05:07.118Z,8.13
2019-05-25T19:07:35.736Z,9.35
2019-05-25T19:10:07.986Z,16.75
2019-05-25T19:12:36.631Z,17.65
2019-05-25T19:15:09.729Z,155.93
2019-05-25T19:17:38.423Z,97.42
2019-05-25T19:20:08.182Z,44.42
2019-05-25T19:22:37.362Z,44.83
2019-05-25T19:25:10.285Z,45.70
2019-05-25T19:27:38.964Z,22.82
2019-05-25T19:30:09.294Z,16.75
2019-05-25T19:32:37.909Z,10.00
2019-05-25T19:35:08.032Z,7.25
2019-05-25T19:37:37.540Z,4.75
2019-05-25T19:40:09.897Z,4.22
2019-05-25T19:42:38.506Z,3.02
2019-05-25T19:45:08.615Z,4.47
2019-05-25T19:47:37.278Z,3.90
2019-05-25T19:50:07.205Z,4.50
2019-05-25T19:52:36.815Z,3.02
2019-05-25T19:55:06.719Z,5.67
2019-05-25T19:57:35.507Z,4.78
2019-05-25T20:00:09.146Z,3.10
2019-05-25T20:02:37.895Z,5.37
2019-05-25T20:05:16.313Z,4.25
2019-05-25T20:07:38.783Z,2.87
2019-05-25T20:10:09.692Z,4.05
2019-05-25T20:12:38.370Z,2.08
2019-05-25T20:15:11.582Z,2.33
2019-05-25T20:17:40.192Z,2.02
2019-05-25T20:20:09.963Z,1.98
2019-05-25T20:22:38.622Z,2.58
2019-05-25T20:25:07.726Z,2.45
2019-05-25T20:27:36.340Z,3.33
2019-05-25T20:30:08.828Z,4.08
2019-05-25T20:32:37.441Z,2.98
2019-05-25T20:35:07.807Z,3.20
2019-05-25T20:37:36.418Z,2.98
2019-05-25T20:40:08.460Z,3.75
2019-05-25T20:42:37.153Z,5.78
2019-05-25T20:45:07.999Z,4.55
2019-05-25T20:47:36.616Z,2.80
2019-05-25T20:50:07.694Z,2.45
2019-05-25T20:52:36.383Z,2.80
2019-05-25T20:55:08.675Z,4.40
2019-05-25T20:57:37.332Z,3.15
2019-05-25T21:00:07.462Z,5.10
2019-05-25T21:02:36.266Z,5.08
2019-05-25T21:05:07.063Z,6.10
2019-05-25T21:07:35.795Z,5.37
2019-05-25T21:10:08.335Z,6.60
2019-05-25T21:12:37.874Z,7.47
2019-05-25T21:15:08.106Z,12.13
2019-05-25T21:17:36.766Z,9.60
2019-05-25T21:20:06.691Z,5.72
2019-05-25T21:22:35.429Z,3.77
2019-05-25T21:25:07.358Z,5.03
2019-05-25T21:27:36.359Z,2.92
2019-05-25T21:30:07.076Z,3.75
2019-05-25T21:32:35.742Z,4.10
2019-05-25T21:35:06.263Z,3.98
2019-05-25T21:37:34.927Z,3.87
2019-05-25T21:40:06.544Z,4.83
2019-05-25T21:42:35.267Z,4.92
2019-05-25T21:45:05.339Z,5.58
2019-05-25T21:47:33.997Z,4.12
2019-05-25T21:50:02.613Z,3.10
2019-05-25T21:52:31.398Z,3.20
2019-05-25T21:55:00.009Z,2.02
2019-05-25T21:57:28.740Z,3.30
2019-05-25T21:59:57.349Z,3.35
2019-05-25T22:02:26.084Z,2.83
2019-05-25T22:04:54.761Z,3.35
2019-05-25T22:07:23.495Z,2.62
2019-05-25T22:09:52.194Z,3.10
2019-05-25T22:12:20.852Z,2.70
2019-05-25T22:14:49.513Z,2.62
2019-05-25T22:17:18.180Z,2.33
2019-05-25T22:19:48.769Z,3.15
2019-05-25T22:22:17.191Z,2.70
2019-05-25T22:24:45.802Z,3.37
2019-05-25T22:27:14.443Z,2.70
2019-05-25T22:29:43.171Z,3.05
2019-05-25T22:32:11.832Z,2.72
2019-05-25T22:34:40.493Z,2.85
2019-05-25T22:37:09.107Z,4.10
2019-05-25T22:39:37.769Z,2.77
2019-05-25T22:42:06.377Z,3.92
2019-05-25T22:44:35.109Z,2.75
2019-05-25T22:47:03.962Z,2.58
2019-05-25T22:49:32.620Z,3.10
2019-05-25T22:52:01.300Z,3.17
2019-05-25T22:54:29.963Z,2.37
2019-05-25T22:56:58.573Z,3.52
2019-05-25T22:59:27.234Z,3.20
2019-05-25T23:01:55.852Z,2.60
2019-05-25T23:04:24.514Z,2.37
2019-05-25T23:06:57.824Z,3.58
2019-05-25T23:09:23.513Z,3.42
2019-05-25T23:11:52.126Z,3.12
2019-05-25T23:14:20.785Z,3.05
2019-05-25T23:16:49.491Z,2.72
2019-05-25T23:19:18.181Z,3.20
2019-05-25T23:21:46.799Z,2.70
2019-05-25T23:24:15.453Z,3.10
2019-05-25T23:26:44.137Z,2.75
2019-05-25T23:29:12.811Z,3.02
2019-05-25T23:31:41.494Z,4.12
2019-05-25T23:34:10.267Z,3.58
2019-05-25T23:36:38.883Z,2.80
2019-05-25T23:39:07.669Z,2.77
2019-05-25T23:41:36.320Z,4.42
2019-05-25T23:44:05.105Z,2.95
2019-05-25T23:46:33.771Z,2.20
2019-05-25T23:49:02.549Z,3.77
2019-05-25T23:51:31.221Z,3.05
2019-05-25T23:53:59.948Z,3.05
2019-05-25T23:56:28.563Z,3.05
2019-05-25T23:58:57.217Z,3.27
